Akron, OH

9:23 AM EST on December 11, 2016 (GMT -0500)
Firestone Park | | Change Station
Active Advisory: Winter Weather Advisory Active Notice: Public Information Statement

Elev 1115 ft 41.05 °N, 81.52 °W | Updated 3 seconds ago

Light Snow
Light Snow
24.4 °F
Feels Like 24 °F
N
2.0
Wind Variable Wind from ESE

Today
High -- | Low -- °F
--% Chance of Precip.
Yesterday
High -- | Low -- °F
Precip. -- in
Pressure 30.36 in
Visibility 4.0 miles
Clouds Mostly Cloudy 5500 ft
Overcast 7000 ft
Windchill 24 °F
Dew Point 21 °F
Humidity 88%
Rainfall 0.00 in
Snow Depth Not available.
7:41 AM 4:57 PM
Waxing Gibbous, 91% visible
METAR KAKR 111354Z AUTO 17006KT 4SM -SN BKN055 OVC070 M04/M07 A3031 RMK AO2 SNB1258E07B39 SLP279 P0000 T10391067
Pressure 30.36 in
Visibility 4.0 miles
Clouds Mostly Cloudy 5500 ft
Overcast 7000 ft
Windchill 24 °F
Dew Point 21 °F
Humidity 88%
Rainfall 0.00 in
Snow Depth Not available.
7:41 AM 4:57 PM
Waxing Gibbous, 91% visible
METAR KAKR 111354Z AUTO 17006KT 4SM -SN BKN055 OVC070 M04/M07 A3031 RMK AO2 SNB1258E07B39 SLP279 P0000 T10391067

10-Day Weather Forecast

Almanac

Astronomy

Dec. 11, 2016 Rise Set
Actual Time
Civil Twilight
Nautical Twilight
Astronomical Twilight
Moon
Length of Visible Light
Length of Day
Tomorrow will be .
, % of the Moon is Illuminated

Today's Extremes

State Highs State Lows

Community

WunderPhotos

Upload Photos

1,956,710 photos uploaded!

WunderBlog® & News

Nearby

Air Quality

  Air Quality AQ Index Pollutant
Not available.

Snow Depth

Station Depth Elevation

Earthquake Activity

City Distance Mag. Time & Date
Minimum magnitude displayed is 2.5.

Coastal Water Temperatures

Place Temperature

Stations

Nearby Weather Stations

Station Location Temp. Windchill Dew Point Humidity Wind Precip. Elev Updated Type
                   

Watches & Warnings

Winter Weather Advisory
Issued: 3:03 AM EST Dec. 11, 2016 – National Weather Service

... Winter Weather Advisory remains in effect until 4 am EST
Monday...

* accumulations... light to moderate snow will result in total
accumulation of 3 to 6 inches by late tonight.

* Timing... occasional snow will occur until late tonight. The snow
may mix with rain by evening.

* Impacts... snow covered roads and walkways. Hazardous driving
conditions on untreated roads with reduced visibilities.

* Winds... south 10 to 20 mph with gusts up to 25 mph today
becoming southwest late tonight.

* Temperatures... in the low to mid 20s rising into the low to mid
30s by early tonight.

Precautionary/preparedness actions...

A Winter Weather Advisory for snow is issued when moderate
amounts of accumulating snow will cause travel difficulties. Be
prepared for snow covered roads and limited visibilities... and
use caution while driving.